Ndjamena, Chad

6:41 AM WAT on November 26, 2014 (GMT +0100)
N'Djamena | Change Station
CLOSE
Current Station
Airport
Location: Ndjamena,
Elevation: 968 ft
Nearby Weather Stations

Elev 968 ft 12.13 °N, 15.03 °E | Updated 41 minutes ago

Clear
Clear
61 °F
Feels Like 61 °F
N
5
Wind Variable Wind from NE

Today
High -- | Low -- °F
--% Chance of Precip.
Yesterday
High -- | Low -- °F
Precip. -- in
6:02 AM 5:31 PM
Waxing Crescent, 17% visible
Pressure 29.92 in
Visibility 3.7 miles
Clouds
Dew Point 45 °F
Humidity 55%
Rainfall 0.00 in
Snow Depth Not available.
UV Not available.
Pollen Not available.
Air Quality Not available.
Flu Activity Not available.
METAR FTTJ 260500Z 04004KT 6000 NSC 16/07 Q1013 BECMG 4500 HZ

More Conditions Fewer Conditions

Pressure 29.92 in
Visibility 3.7 miles
Clouds
Dew Point 45 °F
Humidity 55%
Rainfall 0.00 in
Snow Depth Not available.
UV Not available.
Pollen Not available.
Air Quality Not available.
Flu Activity Not available.
METAR FTTJ 260500Z 04004KT 6000 NSC 16/07 Q1013 BECMG 4500 HZ

More Conditions Fewer Conditions

10-Day Weather Forecast

Almanac

Astronomy

Nov. 26, 2014 Rise Set
Actual Time
Civil Twilight
Nautical Twilight
Astronomical Twilight
Moon
Length of Visible Light
Length of Day
Tomorrow will be .
, % of the Moon is Illuminated

Today's Extremes

Country Highs Country Lows

Community

WunderPhotos

Upload Photos

1,773,683 photos uploaded!

WunderBlogs® & News

Nearby

Air Quality

  Air Quality AQ Index Pollutant
Not available.

Snow Depth

Station Depth Elevation

Earthquake Activity

City Distance Mag. Time & Date
Minimum magnitude displayed is 2.5.

Coastal Water Temperatures

Place Temperature

Nearby Weather Stations